Time;durP1;ratioP1;P1;durP2;ratioP2;P2;SDS_P1;SDS_P2;PMS_P1;PMS_P2;Temp;Humidity;BMP_temperature;BMP_pressure;BME280_temperature;BME280_humidity;BME280_pressure;Samples;Min_cycle;Max_cycle;Signal;HPM_P1;HPM_P2
2022/08/15 00:05:58;;;;;;;6.05;4.47;;;25.50;99.90;;;;;;12389807;28;20050;-34
2022/08/15 00:12:21;;;;;;;6.03;4.18;;;25.50;99.90;;;;;;12383084;28;20042;-40
2022/08/15 00:18:36;;;;;;;8.15;4.93;;;25.60;99.90;;;;;;12392731;28;20042;-38
2022/08/15 00:24:38;;;;;;;5.77;4.20;;;25.60;99.90;;;;;;12389334;28;20050;-34
2022/08/15 00:30:43;;;;;;;5.43;4.43;;;25.60;99.90;;;;;;12386211;28;20050;-36
2022/08/15 00:37:01;;;;;;;6.43;4.70;;;25.60;99.90;;;;;;12391769;28;20100;-39
2022/08/15 00:43:10;;;;;;;7.28;4.53;;;25.60;99.90;;;;;;12412863;28;20046;-34
2022/08/15 00:49:13;;;;;;;6.68;3.60;;;25.60;99.90;;;;;;12393761;28;20070;-34
2022/08/15 00:55:19;;;;;;;7.63;3.63;;;25.60;99.90;;;;;;12398784;28;20817;-34
2022/08/15 01:01:22;;;;;;;4.35;3.60;;;25.60;99.90;;;;;;12397231;28;20062;-34
2022/08/15 01:07:24;;;;;;;5.38;3.70;;;25.50;99.90;;;;;;12396812;28;20514;-38
2022/08/15 01:13:34;;;;;;;5.68;3.63;;;25.30;99.90;;;;;;12395711;28;20116;-34
2022/08/15 01:20:06;;;;;;;8.18;4.18;;;25.20;99.90;;;;;;12405689;28;20427;-38
2022/08/15 01:26:09;;;;;;;12.67;4.83;;;25.00;99.90;;;;;;12394553;28;21505;-34
2022/08/15 01:32:32;;;;;;;5.97;4.97;;;25.00;99.90;;;;;;12399126;28;20388;-38
2022/08/15 01:38:42;;;;;;;6.63;4.35;;;25.10;99.90;;;;;;12391089;28;20050;-34
2022/08/15 01:45:14;;;;;;;6.50;4.03;;;25.00;99.90;;;;;;12390010;28;20054;-38
2022/08/15 01:51:18;;;;;;;6.28;4.40;;;24.80;99.90;;;;;;12393279;28;20125;-34
2022/08/15 01:57:20;;;;;;;8.07;5.00;;;24.60;99.90;;;;;;12404078;28;20050;-34
2022/08/15 02:03:33;;;;;;;9.05;4.80;;;24.50;99.90;;;;;;12391674;28;20042;-34
2022/08/15 02:09:50;;;;;;;6.50;4.90;;;24.40;99.90;;;;;;12397004;28;20050;-37
2022/08/15 02:15:53;;;;;;;7.13;4.57;;;24.40;99.90;;;;;;12396672;28;20200;-34
2022/08/15 02:21:55;;;;;;;6.68;4.85;;;24.50;99.90;;;;;;12398369;28;20050;-38
2022/08/15 02:27:58;;;;;;;;;;;24.50;99.90;;;;;;12394991;28;20073;-34
2022/08/15 02:34:01;;;;;;;6.57;4.68;;;24.50;99.90;;;;;;12395747;28;19922;-37
2022/08/15 02:40:14;;;;;;;7.10;4.57;;;24.30;99.90;;;;;;12392057;28;20050;-38
2022/08/15 02:46:37;;;;;;;7.30;4.43;;;24.20;99.90;;;;;;12400556;28;20054;-34
2022/08/15 02:53:00;;;;;;;4.82;4.28;;;24.20;99.90;;;;;;12391973;28;20042;-34
2022/08/15 02:59:07;;;;;;;5.43;4.30;;;24.20;99.90;;;;;;12397451;28;20137;-37
2022/08/15 03:05:13;;;;;;;5.47;3.90;;;24.30;99.90;;;;;;12389363;28;20083;-34
2022/08/15 03:11:17;;;;;;;5.03;4.18;;;24.40;99.90;;;;;;12387600;28;20459;-33
2022/08/15 03:17:20;;;;;;;6.15;4.00;;;24.40;99.90;;;;;;12392063;28;20502;-34
2022/08/15 03:23:27;;;;;;;5.43;3.87;;;24.30;99.90;;;;;;12389558;28;20086;-38
2022/08/15 03:29:43;;;;;;;6.90;4.32;;;24.20;99.90;;;;;;12386229;28;20042;-33
2022/08/15 03:35:53;;;;;;;6.10;4.00;;;24.30;99.90;;;;;;12393631;28;20042;-38
2022/08/15 03:41:59;;;;;;;7.18;3.85;;;24.10;99.90;;;;;;12392840;28;20181;-38
2022/08/15 03:48:02;;;;;;;6.43;4.03;;;24.00;99.90;;;;;;12393575;28;20109;-33
2022/08/15 03:54:03;;;;;;;5.35;4.18;;;23.90;99.90;;;;;;12398014;28;20038;-37
2022/08/15 04:00:07;;;;;;;4.80;4.25;;;24.00;99.90;;;;;;12384887;28;20050;-38
2022/08/15 04:06:12;;;;;;;5.88;4.03;;;23.90;99.90;;;;;;12339585;28;20057;-39
2022/08/15 04:12:33;;;;;;;6.72;4.30;;;23.90;99.90;;;;;;12387077;28;20495;-35
2022/08/15 04:18:41;;;;;;;5.07;4.07;;;23.80;99.90;;;;;;12390378;28;20172;-34
2022/08/15 04:24:44;;;;;;;7.57;4.35;;;23.80;99.90;;;;;;12390169;28;20042;-37
2022/08/15 04:30:51;;;;;;;5.70;4.25;;;23.70;99.90;;;;;;12388999;28;20051;-37
2022/08/15 04:36:53;;;;;;;5.43;4.43;;;23.70;99.90;;;;;;12387476;28;20117;-34
2022/08/15 04:42:59;;;;;;;6.68;4.20;;;23.70;99.90;;;;;;12383491;28;20057;-34
2022/08/15 04:49:01;;;;;;;6.40;4.70;;;23.60;99.90;;;;;;12384527;28;20129;-33
2022/08/15 04:55:07;;;;;;;7.65;4.75;;;23.60;99.90;;;;;;12388870;28;20046;-37
2022/08/15 05:01:11;;;;;;;7.05;4.90;;;23.50;99.90;;;;;;12393673;28;20185;-39
2022/08/15 05:07:13;;;;;;;6.63;4.13;;;23.40;99.90;;;;;;12392611;28;20108;-38
2022/08/15 05:13:21;;;;;;;7.10;4.72;;;23.30;99.90;;;;;;12385670;28;20049;-33
2022/08/15 05:19:22;;;;;;;5.00;4.15;;;23.30;99.90;;;;;;12383361;28;20058;-37
2022/08/15 05:25:24;;;;;;;7.45;4.72;;;23.20;99.90;;;;;;12395449;28;20058;-38
2022/08/15 05:31:27;;;;;;;7.30;4.20;;;23.20;99.90;;;;;;12394351;28;20449;-37
2022/08/15 05:37:34;;;;;;;6.15;4.30;;;23.20;99.90;;;;;;12389145;28;20065;-37
2022/08/15 05:44:09;;;;;;;6.13;4.65;;;23.20;99.90;;;;;;12397576;28;20074;-33
2022/08/15 05:50:36;;;;;;;8.68;4.93;;;23.20;99.90;;;;;;12389460;28;20089;-33
2022/08/15 05:57:15;;;;;;;9.70;5.13;;;23.30;99.90;;;;;;12395687;28;20104;-33
2022/08/15 06:03:24;;;;;;;5.70;4.80;;;23.30;99.90;;;;;;12391175;28;20085;-33
2022/08/15 06:09:51;;;;;;;5.35;4.40;;;23.40;99.90;;;;;;12392216;28;20528;-37
2022/08/15 06:16:07;;;;;;;10.45;4.20;;;23.60;99.90;;;;;;12391742;28;20042;-34
2022/08/15 06:22:34;;;;;;;8.00;4.28;;;23.70;99.90;;;;;;12395248;28;20057;-37
2022/08/15 06:29:03;;;;;;;8.73;4.32;;;23.90;99.90;;;;;;12397887;28;20102;-33
2022/08/15 06:35:17;;;;;;;5.40;4.38;;;24.00;99.90;;;;;;12387857;28;20038;-33
2022/08/15 06:41:34;;;;;;;7.03;4.70;;;24.10;99.90;;;;;;12396559;28;20048;-33
2022/08/15 06:47:58;;;;;;;9.25;5.13;;;24.30;99.90;;;;;;12391800;28;20050;-33
2022/08/15 06:54:00;;;;;;;7.78;5.15;;;24.30;99.90;;;;;;12400375;28;20073;-33
2022/08/15 07:00:45;;;;;;;9.13;5.50;;;24.40;99.90;;;;;;12390506;28;20058;-34
2022/08/15 07:07:14;;;;;;;10.73;4.82;;;24.40;99.90;;;;;;12391899;28;20065;-36
2022/08/15 07:13:23;;;;;;;7.60;5.43;;;24.40;99.90;;;;;;12395382;28;20038;-34
2022/08/15 07:19:26;;;;;;;8.73;5.88;;;24.60;99.90;;;;;;12390639;28;20141;-33
2022/08/15 07:25:35;;;;;;;8.15;5.50;;;24.60;99.90;;;;;;12394208;28;20506;-38
2022/08/15 07:31:38;;;;;;;6.27;5.53;;;24.60;99.90;;;;;;12388442;28;20050;-37
2022/08/15 07:38:07;;;;;;;8.48;6.20;;;24.60;99.90;;;;;;12390602;28;20053;-37
2022/08/15 07:44:30;;;;;;;8.90;6.38;;;24.70;99.90;;;;;;12387348;28;20057;-38
2022/08/15 07:51:00;;;;;;;9.10;6.72;;;24.90;99.90;;;;;;12391287;28;20208;-33
2022/08/15 07:57:06;;;;;;;6.68;5.55;;;24.80;99.90;;;;;;12385466;28;20560;-37
2022/08/15 08:03:27;;;;;;;9.25;5.50;;;25.10;99.90;;;;;;12390760;28;20053;-34
2022/08/15 08:10:00;;;;;;;10.05;6.07;;;25.30;99.90;;;;;;12392074;28;20112;-39
2022/08/15 08:16:37;;;;;;;8.95;6.40;;;25.60;99.90;;;;;;12391302;28;20082;-39
2022/08/15 08:22:49;;;;;;;8.93;6.05;;;25.80;99.90;;;;;;12385339;28;20058;-33
2022/08/15 08:29:17;;;;;;;7.97;5.78;;;26.00;99.90;;;;;;12389423;28;20047;-33
2022/08/15 08:35:39;;;;;;;8.65;6.13;;;26.20;99.90;;;;;;12389100;28;20041;-34
2022/08/15 08:42:02;;;;;;;9.48;6.43;;;26.40;99.90;;;;;;12384192;28;20046;-38
2022/08/15 08:48:35;;;;;;;8.02;6.00;;;26.40;99.90;;;;;;12385753;28;20066;-39
2022/08/15 08:55:01;;;;;;;6.68;5.43;;;26.40;99.90;;;;;;12387553;28;20049;-34
2022/08/15 09:01:11;;;;;;;7.18;5.13;;;26.50;99.90;;;;;;12399713;28;20047;-34
2022/08/15 09:07:19;;;;;;;11.02;5.00;;;26.60;99.90;;;;;;12394229;28;20141;-38
2022/08/15 09:13:34;;;;;;;8.57;5.45;;;26.70;99.90;;;;;;12396332;28;20394;-34
2022/08/15 09:19:51;;;;;;;6.88;5.65;;;26.80;99.90;;;;;;12395227;28;20061;-38
2022/08/15 09:26:38;;;;;;;8.00;5.15;;;26.90;99.90;;;;;;12390425;28;20406;-38
2022/08/15 09:33:20;;;;;;;8.95;5.32;;;27.00;99.90;;;;;;12393418;28;20053;-34
2022/08/15 09:39:38;;;;;;;8.52;4.65;;;27.10;99.90;;;;;;12392279;28;20081;-38
2022/08/15 09:45:59;;;;;;;8.40;5.22;;;27.20;99.90;;;;;;12399357;28;20046;-38
2022/08/15 09:52:40;;;;;;;8.63;4.93;;;27.00;99.90;;;;;;12398254;28;20047;-34
2022/08/15 09:58:54;;;;;;;8.45;4.57;;;27.00;99.90;;;;;;12394635;28;20486;-37
2022/08/15 10:04:57;;;;;;;6.40;5.05;;;27.50;99.90;;;;;;12394025;28;20092;-34
2022/08/15 10:11:11;;;;;;;16.50;4.30;;;27.90;99.90;;;;;;12397619;28;20046;-38
2022/08/15 10:17:27;;;;;;;6.07;4.50;;;27.80;99.90;;;;;;12391511;28;20048;-34
2022/08/15 10:23:37;;;;;;;6.28;4.28;;;27.50;99.90;;;;;;12397837;28;20050;-34
2022/08/15 10:29:49;;;;;;;6.85;4.35;;;27.80;99.90;;;;;;12392195;28;20050;-38
2022/08/15 10:36:18;;;;;;;10.30;5.00;;;27.70;99.90;;;;;;12392316;28;20042;-34
2022/08/15 10:42:48;;;;;;;9.68;4.82;;;27.60;99.90;;;;;;12390981;28;20051;-34
2022/08/15 10:49:25;;;;;;;8.70;4.72;;;27.40;99.90;;;;;;12393697;28;20384;-38
2022/08/15 10:55:32;;;;;;;8.90;4.85;;;26.90;99.90;;;;;;12386924;28;20065;-38
2022/08/15 11:02:22;;;;;;;7.50;3.70;;;26.60;99.90;;;;;;12385359;28;20058;-34
2022/08/15 11:08:49;;;;;;;11.82;4.70;;;26.40;99.90;;;;;;12388858;28;20582;-34
2022/08/15 11:14:55;;;;;;;12.23;5.88;;;26.20;99.90;;;;;;12394959;28;20112;-34
2022/08/15 11:21:36;;;;;;;10.68;6.18;;;25.50;99.90;;;;;;12390199;28;20038;-34
2022/08/15 11:27:56;;;;;;;8.88;4.18;;;25.00;99.90;;;;;;12389521;28;20398;-34
2022/08/15 11:33:59;;;;;;;9.27;3.80;;;24.50;99.90;;;;;;12391474;28;20046;-38
2022/08/15 11:40:21;;;;;;;9.68;3.47;;;24.40;99.90;;;;;;12390362;28;20042;-34
2022/08/15 11:46:24;;;;;;;5.82;3.67;;;24.20;99.90;;;;;;12393802;28;20112;-38
2022/08/15 11:52:36;;;;;;;9.15;3.90;;;24.10;99.90;;;;;;12386516;28;20043;-36
2022/08/15 11:58:46;;;;;;;6.05;3.25;;;23.90;99.90;;;;;;12387251;28;20042;-38
2022/08/15 12:05:15;;;;;;;6.57;2.80;;;23.80;99.90;;;;;;12384245;28;20046;-38
2022/08/15 12:11:49;;;;;;;8.77;3.38;;;23.80;99.90;;;;;;12389400;28;20039;-38
2022/08/15 12:18:23;;;;;;;7.72;3.70;;;23.80;99.90;;;;;;12391288;28;20054;-40
2022/08/15 12:24:48;;;;;;;6.30;3.80;;;23.50;99.90;;;;;;12386954;28;20557;-34
2022/08/15 12:30:50;;;;;;;6.80;4.10;;;23.50;99.90;;;;;;12403342;28;20108;-33
2022/08/15 12:36:53;;;;;;;5.60;3.58;;;23.30;99.90;;;;;;12392657;28;20043;-34
2022/08/15 12:43:07;;;;;;;6.80;3.95;;;23.10;99.90;;;;;;12393831;28;20046;-37
2022/08/15 12:49:09;;;;;;;5.90;4.15;;;23.10;99.90;;;;;;12401792;28;20087;-34
2022/08/15 12:55:11;;;;;;;7.50;4.93;;;22.90;99.90;;;;;;12402565;28;20074;-34
2022/08/15 13:01:13;;;;;;;7.07;5.10;;;22.70;99.90;;;;;;12398455;28;20050;-34
2022/08/15 13:07:26;;;;;;;7.95;5.00;;;22.70;99.90;;;;;;12402676;28;20057;-37
2022/08/15 13:13:32;;;;;;;9.85;5.22;;;22.50;99.90;;;;;;12395843;28;20162;-38
2022/08/15 13:26:01;;;;;;;9.93;5.68;;;22.90;99.90;;;;;;12395749;28;20054;-34
2022/08/15 13:32:23;;;;;;;5.95;4.28;;;23.30;99.90;;;;;;12397181;28;20399;-34
2022/08/15 13:38:28;;;;;;;6.47;4.17;;;23.10;99.90;;;;;;12397879;28;20055;-33
2022/08/15 13:44:34;;;;;;;7.53;4.55;;;23.30;99.90;;;;;;12393586;28;20355;-33
2022/08/15 13:50:37;;;;;;;10.20;5.00;;;23.10;99.90;;;;;;12397509;28;20100;-37
2022/08/15 13:56:41;;;;;;;8.10;4.40;;;23.00;99.90;;;;;;12397481;28;20627;-37
2022/08/15 14:02:53;;;;;;;5.93;4.00;;;23.10;99.90;;;;;;12391182;28;20614;-38
2022/08/15 14:08:56;;;;;;;5.38;3.90;;;23.10;99.90;;;;;;12396279;28;20050;-33
2022/08/15 14:15:18;;;;;;;5.50;4.20;;;23.20;99.90;;;;;;12407621;28;20042;-37
2022/08/15 14:21:28;;;;;;;5.28;4.03;;;23.30;99.90;;;;;;12402784;28;20046;-37
2022/08/15 14:27:31;;;;;;;4.30;3.20;;;23.50;99.90;;;;;;12397271;28;20050;-39
2022/08/15 14:33:57;;;;;;;5.60;3.80;;;24.30;99.90;;;;;;12392151;28;20439;-34
2022/08/15 14:40:23;;;;;;;8.32;3.80;;;25.40;99.90;;;;;;12388674;28;20046;-39
2022/08/15 14:46:28;;;;;;;6.93;3.70;;;25.40;99.90;;;;;;12402407;28;20498;-35
2022/08/15 14:52:38;;;;;;;7.53;4.53;;;24.90;99.90;;;;;;12412033;28;20053;-38
2022/08/15 14:58:41;;;;;;;7.03;5.15;;;24.30;99.90;;;;;;12396522;28;20129;-33
2022/08/15 15:04:51;;;;;;;7.75;4.85;;;24.30;99.90;;;;;;12400928;28;20513;-35
2022/08/15 15:10:55;;;;;;;;;;;24.10;99.90;;;;;;12392802;28;20046;-37
2022/08/15 15:16:58;;;;;;;6.25;4.70;;;24.10;99.90;;;;;;12396569;28;19922;-34
2022/08/15 15:23:00;;;;;;;9.77;4.40;;;24.20;99.90;;;;;;12400289;28;20082;-33
2022/08/15 15:29:03;;;;;;;6.93;4.10;;;24.50;99.90;;;;;;12382008;28;20289;-33
2022/08/15 15:35:10;;;;;;;7.18;3.88;;;25.00;99.90;;;;;;12396603;28;20100;-33
2022/08/15 15:41:12;;;;;;;7.18;3.90;;;25.00;99.90;;;;;;12390372;28;20043;-37
2022/08/15 15:47:14;;;;;;;6.55;4.32;;;24.80;99.90;;;;;;12396307;28;20058;-33
2022/08/15 15:53:30;;;;;;;5.20;4.32;;;24.60;99.90;;;;;;12387203;28;20096;-38
2022/08/15 15:59:33;;;;;;;7.10;4.50;;;24.40;99.90;;;;;;12396065;28;20514;-34
2022/08/15 16:05:59;;;;;;;6.63;4.00;;;24.20;99.90;;;;;;12393124;28;20491;-33
2022/08/15 16:12:21;;;;;;;7.45;5.55;;;24.10;99.90;;;;;;12401411;28;20816;-34
2022/08/15 16:18:52;;;;;;;8.55;5.07;;;23.80;99.90;;;;;;12406469;28;20054;-33
2022/08/15 16:25:25;;;;;;;8.63;4.68;;;23.80;99.90;;;;;;12383415;28;20101;-34
2022/08/15 16:31:57;;;;;;;9.75;5.32;;;23.80;99.90;;;;;;12396946;28;20062;-38
2022/08/15 16:38:07;;;;;;;8.45;5.53;;;23.70;99.90;;;;;;12402412;28;20074;-33
2022/08/15 16:44:36;;;;;;;8.52;4.80;;;23.70;99.90;;;;;;12404503;28;20112;-39
2022/08/15 16:51:10;;;;;;;8.10;5.25;;;23.70;99.90;;;;;;12402627;28;20056;-37
2022/08/15 16:57:26;;;;;;;6.43;5.20;;;23.60;99.90;;;;;;12383521;28;20082;-34
2022/08/15 17:03:55;;;;;;;6.60;4.70;;;23.60;99.90;;;;;;12410103;28;20089;-38
2022/08/15 17:10:06;;;;;;;9.70;4.38;;;23.60;99.90;;;;;;12403337;28;20148;-34
2022/08/15 17:16:09;;;;;;;5.38;4.20;;;23.60;99.90;;;;;;12402638;28;20108;-37
2022/08/15 17:22:44;;;;;;;7.88;4.43;;;23.60;99.90;;;;;;12408323;28;20185;-38
2022/08/15 17:29:04;;;;;;;6.47;4.05;;;23.50;99.90;;;;;;12417351;28;20089;-34
2022/08/15 17:35:07;;;;;;;10.50;4.68;;;23.50;99.90;;;;;;12400523;28;20081;-35
2022/08/15 17:41:15;;;;;;;5.38;4.20;;;23.60;99.90;;;;;;12383383;28;20798;-38
2022/08/15 17:47:43;;;;;;;5.68;3.70;;;23.70;99.90;;;;;;12412567;28;20042;-37
2022/08/15 17:53:57;;;;;;;5.90;4.13;;;23.60;99.90;;;;;;12413411;28;20100;-39
2022/08/15 18:00:13;;;;;;;5.97;4.43;;;23.50;99.90;;;;;;12403017;28;20042;-39
2022/08/15 18:06:32;;;;;;;11.27;4.80;;;23.40;99.90;;;;;;12390917;28;20054;-38
2022/08/15 18:12:34;;;;;;;7.57;4.47;;;23.40;99.90;;;;;;12424886;28;20053;-37
2022/08/15 18:18:49;;;;;;;7.43;4.28;;;23.30;99.90;;;;;;12452110;28;20084;-38
2022/08/15 18:25:10;;;;;;;6.93;4.22;;;23.30;99.90;;;;;;12456749;28;20041;-34
2022/08/15 18:31:22;;;;;;;6.82;4.72;;;23.10;99.90;;;;;;12453957;28;20049;-38
2022/08/15 18:37:33;;;;;;;6.53;4.95;;;23.10;99.90;;;;;;12454367;28;20492;-35
2022/08/15 18:43:59;;;;;;;8.53;5.47;;;23.00;99.90;;;;;;12458046;28;20132;-34
2022/08/15 18:50:24;;;;;;;7.68;5.57;;;22.90;99.90;;;;;;12444160;28;20050;-34
2022/08/15 18:56:55;;;;;;;10.75;5.47;;;22.80;99.90;;;;;;12445486;28;20454;-38
2022/08/15 19:03:00;;;;;;;8.82;5.05;;;22.80;99.90;;;;;;12449650;28;20115;-34
2022/08/15 19:09:14;;;;;;;8.20;5.00;;;22.80;99.90;;;;;;12457269;28;20042;-38
2022/08/15 19:15:32;;;;;;;9.23;5.25;;;22.70;99.90;;;;;;12453918;28;20056;-39
2022/08/15 19:21:39;;;;;;;7.35;4.63;;;22.70;99.90;;;;;;12462515;28;20050;-34
2022/08/15 19:28:01;;;;;;;8.35;5.65;;;22.70;99.90;;;;;;12442160;28;20057;-34
2022/08/15 19:34:35;;;;;;;6.70;5.10;;;22.70;99.90;;;;;;12444989;28;20052;-34
2022/08/15 19:40:55;;;;;;;9.67;5.13;;;22.70;99.90;;;;;;12449984;28;20537;-37
2022/08/15 19:47:01;;;;;;;12.65;6.03;;;22.60;99.90;;;;;;12459426;28;20049;-38
2022/08/15 19:53:47;;;;;;;11.02;5.90;;;22.60;99.90;;;;;;12453796;28;20064;-34
2022/08/15 20:00:22;;;;;;;7.80;5.63;;;22.50;99.90;;;;;;12445353;28;20050;-34
2022/08/15 20:06:54;;;;;;;9.25;6.10;;;22.50;99.90;;;;;;12447960;28;20129;-34
2022/08/15 20:13:15;;;;;;;10.75;5.82;;;22.50;99.90;;;;;;12462162;28;20045;-34
2022/08/15 20:19:35;;;;;;;10.65;5.78;;;22.50;99.90;;;;;;12444296;28;20132;-34
2022/08/15 20:25:50;;;;;;;10.30;5.75;;;22.50;99.90;;;;;;12451901;28;20103;-37
2022/08/15 20:32:00;;;;;;;12.13;6.00;;;22.50;99.90;;;;;;12452765;28;20129;-38
2022/08/15 20:38:33;;;;;;;10.27;6.30;;;22.40;99.90;;;;;;12440463;28;20093;-38
2022/08/15 20:44:59;;;;;;;8.73;5.70;;;22.50;99.90;;;;;;12449036;28;20046;-38
2022/08/15 20:51:13;;;;;;;13.73;6.32;;;22.50;99.90;;;;;;12461820;28;20065;-34
2022/08/15 20:57:32;;;;;;;11.68;6.63;;;22.60;99.90;;;;;;12459973;28;20061;-35
2022/08/15 21:03:58;;;;;;;12.77;6.88;;;22.40;99.90;;;;;;12473072;28;20048;-38
2022/08/15 21:10:21;;;;;;;10.80;6.32;;;22.50;99.90;;;;;;12455836;28;20066;-34
2022/08/15 21:16:52;;;;;;;11.80;6.60;;;22.40;99.90;;;;;;12461949;28;20057;-38
2022/08/15 21:23:24;;;;;;;10.48;6.50;;;22.40;99.90;;;;;;12441506;28;20061;-38
2022/08/15 21:29:29;;;;;;;9.73;7.38;;;22.40;99.90;;;;;;12452031;28;20690;-34
2022/08/15 21:35:43;;;;;;;12.57;6.82;;;22.30;99.90;;;;;;12454678;28;20132;-34
2022/08/15 21:41:50;;;;;;;11.50;7.13;;;22.40;99.90;;;;;;12451183;28;20127;-34
2022/08/15 21:48:38;;;;;;;14.02;7.55;;;22.10;99.90;;;;;;12462804;28;20092;-35
2022/08/15 21:54:53;;;;;;;11.65;7.70;;;22.10;99.90;;;;;;12411345;28;20137;-38
2022/08/15 22:01:40;;;;;;;10.30;7.53;;;21.90;99.90;;;;;;12459919;28;20088;-34
2022/08/15 22:07:44;;;;;;;10.43;7.55;;;21.90;99.90;;;;;;12366690;28;20049;-39
2022/08/15 22:14:07;;;;;;;10.77;7.68;;;21.70;99.90;;;;;;12447875;28;20037;-34
2022/08/15 22:20:30;;;;;;;11.73;8.80;;;21.60;99.90;;;;;;12455640;28;20053;-36
2022/08/15 22:26:36;;;;;;;15.57;8.35;;;21.60;99.90;;;;;;12449657;28;20549;-38
2022/08/15 22:32:45;;;;;;;14.48;9.65;;;21.50;99.90;;;;;;12444919;28;20092;-34
2022/08/15 22:38:47;;;;;;;14.95;8.50;;;21.40;99.90;;;;;;12437155;28;20183;-34
2022/08/15 22:44:49;;;;;;;15.15;9.70;;;21.30;99.90;;;;;;12437938;28;20073;-34
2022/08/15 22:51:04;;;;;;;16.20;9.52;;;21.20;99.90;;;;;;12445797;28;20057;-34
2022/08/15 22:57:14;;;;;;;16.27;9.43;;;21.30;99.90;;;;;;12442698;28;20044;-38
2022/08/15 23:03:21;;;;;;;13.38;9.15;;;21.20;99.90;;;;;;12440333;28;20041;-34
2022/08/15 23:09:26;;;;;;;14.60;9.35;;;21.20;99.90;;;;;;12445835;28;20045;-38
2022/08/15 23:15:45;;;;;;;11.43;9.27;;;21.20;99.90;;;;;;12438895;28;20076;-34
2022/08/15 23:21:55;;;;;;;24.10;9.25;;;21.10;99.90;;;;;;12441789;28;20052;-38
2022/08/15 23:27:59;;;;;;;12.55;9.20;;;21.10;99.90;;;;;;12433508;28;20087;-38
2022/08/15 23:34:04;;;;;;;17.08;9.32;;;21.10;99.90;;;;;;12438166;28;20161;-38
2022/08/15 23:40:27;;;;;;;14.98;9.38;;;21.10;99.90;;;;;;12439547;28;20095;-34
2022/08/15 23:46:29;;;;;;;13.10;9.50;;;21.10;99.90;;;;;;12342514;28;20054;-34
2022/08/15 23:52:38;;;;;;;16.27;9.55;;;21.10;99.90;;;;;;12444150;28;20378;-34
2022/08/15 23:58:40;;;;;;;14.38;9.43;;;21.10;99.90;;;;;;12438542;28;20184;-38
